• Join FlightAware (Why Join?)
  • Login
  • US Flag 
05:15PM EST


 

Airport Tracker/Info


-or-


 

Live Flight TrackerFlight Track Log ✈ N488VC ✈ 19-Apr-2013 ✈ KBED - KPHL

Flight Track Log - Related Links

Times and Time Zones

All times are in EDT time to prevent confusion due to time zone crossing. See the N488VC flight status page for this flight to view local times or setup timezone preferences in your user account.

Time Position Orientation Groundspeed Altitude Reporting Facility
EDT Latitude Longitude Course Direction KTS MPH feet Rate Location/Type
11:22AM 42.3324 -72.0408 260° West  Level FlightAware Approximate
11:22AM 42.3425 -71.8167 270° West 294 338 17,800  Level Boston Center
11:23AM 42.3167 -72.1730 270° West  Level FlightAware Approximate
11:23AM 42.3367 -71.9372 266° West 309 356 20,000  Level Boston Center
11:24AM 42.3167 -72.3070 270° West  Level FlightAware Approximate
11:24AM 42.3311 -72.0636 267° West 322 371 20,600  Level Boston Center
11:25AM 42.3060 -72.4400 262° West  Level FlightAware Approximate
11:25AM 42.3272 -72.1733 267° West 344 396 22,200  Level Boston Center
11:26AM 42.3000 -72.5733 270° West  Level FlightAware Approximate
11:26AM 42.3192 -72.3389 266° West 367 422 24,000  Level Boston Center
11:27AM 42.3000 -72.7073 270° West  Level FlightAware Approximate
11:27AM 42.3128 -72.4878 267° West 377 434 24,000  Level Boston Center
11:28AM 42.3064 -72.6367 267° West 388 447 24,000  Level Boston Center
11:29AM 42.2997 -72.7853 267° West 400 460 24,000  Level Boston Center
11:30AM 42.2911 -72.9200 265° West 407 468 24,000  Level Boston Center
11:31AM 42.2839 -73.0714 266° West 407 468 24,000  Level Boston Center
11:32AM 42.2769 -73.2231 267° West 407 468 24,000  Level Boston Center
11:33AM 42.2714 -73.3800 267° West 402 463 24,000  Level Boston Center
11:34AM 42.2639 -73.5286 266° West 402 463 24,000  Level Boston Center
11:35AM 42.2561 -73.6800 266° West 402 463 24,000  Level Boston Center
11:36AM 42.2461 -73.8228 265° West 423 487 24,000  Level Boston Center
11:37AM 42.2381 -73.9711 266° West 418 481 24,000  Level Boston Center
11:38AM 42.2294 -74.1197 266° West 406 467 24,000  Level Boston Center
11:39AM 42.2211 -74.2681 266° West 406 467 24,000  Level Boston Center
11:40AM 42.2069 -74.4861 265° West 401 461 24,000 -420 Level Boston Center
11:42AM 42.1578 -74.7128 254° West 396 456 22,900 -960 Descending New York Center
11:43AM 42.1058 -74.8269 239° Southwest 380 437 21,400 -1,620 Descending New York Center
11:44AM 42.0497 -74.9519 239° Southwest 369 425 19,700 -1,200 Descending New York Center
11:45AM 41.9978 -75.0658 238° Southwest 358 412 19,000 -360 Descending New York Center
11:46AM 41.9339 -75.1592 227° Southwest 353 406 19,000  Level New York Center
11:47AM 41.8608 -75.2183 211° Southwest 340 391 19,000 -660 Level New York Center
11:48AM 41.7792 -75.2853 211° Southwest 345 397 17,800 -1,440 Descending New York Center
11:49AM 41.6892 -75.3569 211° Southwest 350 403 16,200 -1,560 Descending New York Center
11:50AM 41.6094 -75.4208 211° Southwest 350 403 14,700 -1,500 Descending New York Center
11:51AM 41.5278 -75.4872 211° Southwest 350 403 13,300 -1,380 Descending New York Center
11:52AM 41.4567 -75.5458 212° Southwest 350 403 12,000 -660 Descending New York Center
11:53AM 41.3686 -75.6142 210° Southwest 344 396 12,000  Level New York Center
11:54AM 41.2956 -75.6669 208° Southwest 344 396 12,000  Level New York Center
11:55AM 41.1947 -75.6872 189° South 338 389 12,000  Level New York Center
11:56AM 41.1008 -75.6886 181° South 338 389 12,000  Level New York Center
11:57AM 41.0175 -75.6881 180° South 345 397 12,000 -60 Level New York Center
11:58AM 40.9197 -75.6867 179° South 345 397 11,900 -60 Descending New York Center
11:59AM 40.8156 -75.6844 179° South 345 397 11,900  Level New York Center
12:00PM 40.7197 -75.6858 181° South 345 397 11,900  Level New York Center
12:01PM 40.6261 -75.6819 178° South 345 397 11,900 -720 Level New York Center
12:02PM 40.5469 -75.6156 147° Southeast 349 402 10,600 -1,380 Descending FAA TRACON SMA TRACON (SMA)
12:02PM 40.5294 -75.5844 126° Southeast 342 394 10,200 -1,080 Descending FAA TRACON SMA TRACON (SMA)
12:02PM 40.5147 -75.5536 122° Southeast 336 387 9,900 -1,200 Descending FAA TRACON SMA TRACON (SMA)
12:03PM 40.4797 -75.4878 125° Southeast 302 348 9,000 -900 Descending FAA TRACON SMA TRACON (SMA)
12:03PM 40.4653 -75.4636 128° Southeast 289 333 9,000  Level FAA TRACON SMA TRACON (SMA)
12:04PM 40.4458 -75.4494 151° Southeast 259 298 9,000 -600 Level FAA TRACON SMA TRACON (SMA)
12:04PM 40.4200 -75.4333 155° Southeast 270 311 8,600 -1,200 Descending FAA TRACON SMA TRACON (SMA)
12:04PM 40.3992 -75.4217 157° South 268 308 8,200 -1,200 Descending FAA TRACON SMA TRACON (SMA)
12:05PM 40.3778 -75.4108 159° South 260 299 7,800 -1,380 Descending FAA TRACON SMA TRACON (SMA)
12:05PM 40.3533 -75.3981 158° South 253 291 7,300 -1,200 Descending FAA TRACON SMA TRACON (SMA)
12:05PM 40.3336 -75.3875 158° South 247 284 7,000 -480 Descending FAA TRACON SMA TRACON (SMA)
12:06PM 40.3142 -75.3778 159° South 245 282 7,000  Level FAA TRACON SMA TRACON (SMA)
12:06PM 40.2894 -75.3831 189° South 247 284 7,000  Level FAA TRACON SMA TRACON (SMA)
12:06PM 40.2717 -75.3928 203° Southwest 228 262 7,000  Level FAA TRACON SMA TRACON (SMA)
12:07PM 40.2531 -75.4042 205° Southwest 240 276 7,000  Level FAA TRACON SMA TRACON (SMA)
12:07PM 40.2289 -75.4106 191° South 228 262 7,000 -180 Level FAA TRACON SMA TRACON (SMA)
12:07PM 40.2094 -75.4164 193° South 232 267 6,900 -780 Descending FAA TRACON SMA TRACON (SMA)
12:08PM 40.1906 -75.4222 193° South 231 266 6,500 -1,200 Descending FAA TRACON SMA TRACON (SMA)
12:08PM 40.1681 -75.4297 194° South 227 261 6,100 -780 Descending FAA TRACON SMA TRACON (SMA)
12:08PM 40.1483 -75.4356 193° South 222 255 6,000 -180 Descending FAA TRACON SMA TRACON (SMA)
12:09PM 40.1306 -75.4414 194° South 217 250 6,000  Level FAA TRACON SMA TRACON (SMA)
12:09PM 40.0900 -75.4536 193° South 215 247 6,000  Level FAA TRACON SMA TRACON (SMA)
12:10PM 40.0722 -75.4592 193° South 215 247 6,000  Level FAA TRACON SMA TRACON (SMA)
12:10PM 40.0500 -75.4658 193° South 216 249 6,000  Level FAA TRACON SMA TRACON (SMA)
12:10PM 40.0317 -75.4719 194° South 215 247 6,000  Level FAA TRACON SMA TRACON (SMA)
12:11PM 40.0133 -75.4767 191° South 216 249 6,000 -780 Level FAA TRACON SMA TRACON (SMA)
12:11PM 39.9928 -75.4881 203° Southwest 211 243 5,500 -1,200 Descending FAA TRACON SMA TRACON (SMA)
12:11PM 39.9761 -75.4981 205° Southwest 220 253 5,200 -1,080 Descending FAA TRACON SMA TRACON (SMA)
12:12PM 39.9594 -75.5075 203° Southwest 219 252 4,800 -1,200 Descending FAA TRACON SMA TRACON (SMA)
12:12PM 39.9381 -75.5194 203° Southwest 217 250 4,400 -1,260 Descending FAA TRACON SMA TRACON (SMA)
12:12PM 39.9211 -75.5300 206° Southwest 217 250 4,000 -660 Descending FAA TRACON SMA TRACON (SMA)
12:13PM 39.9058 -75.5400 207° Southwest 190 219 4,000 -180 Level FAA TRACON SMA TRACON (SMA)
12:13PM 39.8900 -75.5486 203° Southwest 160 184 3,900 -780 Descending FAA TRACON SMA TRACON (SMA)
12:13PM 39.8778 -75.5511 189° South 160 184 3,500 -1,080 Descending FAA TRACON SMA TRACON (SMA)
12:14PM 39.8650 -75.5406 148° Southeast 161 185 3,200 -540 Descending FAA TRACON SMA TRACON (SMA)
12:16PM 39.8319 -75.4206 110° East 200 230 2,200 -480 Descending FAA TRACON SMA TRACON (SMA)
12:16PM 39.8347 -75.4025 79° East 189 217 2,000 -900 Descending FAA TRACON SMA TRACON (SMA)
12:17PM 39.8381 -75.3814 78° East 176 203 1,600 -1,080 Descending FAA TRACON SMA TRACON (SMA)
12:17PM 39.8428 -75.3578 75° East 177 204 1,300 -900 Descending FAA TRACON SMA TRACON (SMA)
12:17PM 39.8475 -75.3428 68° East 169 194 1,000 -900 Descending FAA TRACON SMA TRACON (SMA)
12:18PM 39.8514 -75.3228 76° East 157 181 700 -900 Descending FAA TRACON SMA TRACON (SMA)
12:18PM 39.8556 -75.3014 76° East 158 182 400 -780 Descending FAA TRACON SMA TRACON (SMA)
12:18PM 39.8586 -75.2867 75° East 155 178 200 -300 Descending FAA TRACON SMA TRACON (SMA)
12:19PM 39.8597 -75.2808 76° East 154 177 200  Level FAA TRACON SMA TRACON (SMA)
12:21PM 39.8667 -75.2333 123° Southeast  Level FlightAware Approximate